Time;durP1;ratioP1;P1;durP2;ratioP2;P2;SDS_P1;SDS_P2;PMS_P1;PMS_P2;Temp;Humidity;BMP_temperature;BMP_pressure;BME280_temperature;BME280_humidity;BME280_pressure;Samples;Min_cycle;Max_cycle;Signal;HPM_P1;HPM_P2
2023/10/10 00:01:07;;;;;;;13.57;3.95;;;15.70;99.50;;;15.54;81.78;97761.88;4997812;28;20501;-39
2023/10/10 00:03:39;;;;;;;9.65;3.47;;;15.70;99.20;;;15.54;81.02;97766.31;4996013;28;20383;-41
2023/10/10 00:06:09;;;;;;;11.95;4.22;;;15.70;99.10;;;15.46;79.19;97756.91;4999936;28;20156;-38
2023/10/10 00:08:40;;;;;;;10.20;4.03;;;15.70;98.80;;;15.54;77.57;97764.53;5000481;28;20030;-40
2023/10/10 00:11:09;;;;;;;7.97;3.10;;;15.70;98.50;;;15.59;77.78;97772.25;4998889;28;20605;-39
2023/10/10 00:13:42;;;;;;;9.70;3.55;;;15.70;98.60;;;15.56;79.36;97767.97;4995001;28;20022;-39
2023/10/10 00:21:52;;;;;;;15.43;3.47;;;15.60;99.00;;;15.41;80.37;97750.97;4982744;28;20042;-38
2023/10/10 00:24:24;;;;;;;11.00;3.20;;;15.60;99.20;;;15.37;81.48;97745.91;5003298;28;20036;-38
2023/10/10 00:26:49;;;;;;;10.75;4.00;;;15.60;99.40;;;15.41;81.97;97756.28;5000751;28;20378;-39
2023/10/10 00:29:18;;;;;;;12.38;3.67;;;15.50;99.50;;;15.38;82.36;97755.59;5002908;28;20022;-38
2023/10/10 00:31:47;;;;;;;11.40;3.88;;;15.50;99.60;;;15.43;82.80;97756.22;4991542;28;20132;-39
2023/10/10 00:34:13;;;;;;;10.90;3.80;;;15.50;99.70;;;15.34;83.02;97733.63;4993444;28;20037;-40
2023/10/10 00:36:41;;;;;;;10.43;3.78;;;15.50;99.80;;;15.38;83.28;97744.97;5000106;28;20026;-39
2023/10/10 00:39:20;;;;;;;13.35;3.70;;;15.50;99.80;;;15.28;83.15;97723.31;4993670;28;20038;-38
2023/10/10 00:41:53;;;;;;;12.77;3.67;;;15.50;99.80;;;15.40;82.86;97737.78;4998187;28;20377;-38
2023/10/10 00:44:21;;;;;;;9.90;4.10;;;15.50;99.80;;;15.40;83.16;97743.97;4996528;28;20034;-39
2023/10/10 00:46:51;;;;;;;9.63;3.58;;;15.50;99.80;;;15.39;82.68;97734.25;4998491;28;20038;-41
2023/10/10 00:49:23;;;;;;;15.75;4.05;;;15.50;99.80;;;15.39;82.71;97734.25;5001602;28;20028;-38
2023/10/10 00:51:51;;;;;;;12.82;3.50;;;15.50;99.80;;;15.42;83.09;97739.41;5003187;28;20067;-42
2023/10/10 00:56:54;;;;;;;8.30;3.22;;;15.50;99.90;;;15.38;85.09;97727.22;4998838;28;20547;-38
2023/10/10 00:59:35;;;;;;;8.75;3.28;;;15.50;99.90;;;15.34;85.52;97723.00;4999042;28;20033;-38
2023/10/10 01:02:03;;;;;;;11.63;4.03;;;15.50;99.90;;;15.36;85.89;97738.88;5001403;28;20445;-40
2023/10/10 01:07:18;;;;;;;9.80;4.10;;;15.40;99.90;;;15.38;85.44;97735.22;4988057;28;20040;-38
2023/10/10 01:09:55;;;;;;;9.77;3.35;;;15.40;99.90;;;15.34;84.76;97725.66;5001105;28;20083;-39
2023/10/10 01:12:39;;;;;;;9.90;3.50;;;15.50;99.90;;;15.38;83.33;97735.22;5004757;28;20034;-38
2023/10/10 01:15:16;;;;;;;11.98;4.18;;;15.50;99.90;;;15.38;82.84;97737.88;4997668;28;20068;-38
2023/10/10 01:17:43;;;;;;;8.43;3.33;;;15.50;99.90;;;15.35;82.43;97730.03;4997723;28;20095;-38
2023/10/10 01:20:34;;;;;;;14.90;4.18;;;15.40;99.90;;;15.37;80.86;97732.63;4992761;28;20291;-38
2023/10/10 01:23:00;;;;;;;9.73;4.00;;;15.50;99.60;;;15.36;80.86;97729.13;4997666;28;20034;-39
2023/10/10 01:28:02;;;;;;;;;;;15.40;99.90;;;15.30;82.73;97729.41;4997277;28;20506;-38
2023/10/10 01:30:43;;;;;;;11.57;3.88;;;15.40;99.90;;;15.28;83.53;97723.31;4998031;28;19920;-38
2023/10/10 01:33:14;;;;;;;10.57;3.90;;;15.40;99.90;;;15.22;84.78;97716.53;4983843;28;20044;-38
2023/10/10 01:35:44;;;;;;;9.77;3.95;;;15.40;99.90;;;15.17;86.69;97712.38;5001847;28;20041;-38
2023/10/10 01:38:32;;;;;;;11.52;3.88;;;15.30;99.90;;;15.11;88.19;97708.25;4984471;28;22450;-39
2023/10/10 01:41:04;;;;;;;11.57;3.50;;;15.30;99.90;;;15.09;88.00;97704.78;4990226;28;20034;-38
2023/10/10 01:43:32;;;;;;;12.32;4.53;;;15.20;99.90;;;15.12;87.91;97709.09;4992535;28;20041;-41
2023/10/10 01:46:19;;;;;;;9.40;3.60;;;15.20;99.90;;;15.14;88.41;97710.72;4988461;28;20557;-39
2023/10/10 01:48:45;;;;;;;10.40;3.20;;;15.30;99.90;;;15.13;88.44;97706.38;4990433;28;20038;-38
2023/10/10 01:51:15;;;;;;;10.82;3.40;;;15.30;99.90;;;15.07;88.81;97696.91;4995231;28;20042;-38
2023/10/10 01:53:42;;;;;;;11.77;3.47;;;15.30;99.90;;;15.11;89.75;97699.41;4988285;28;20041;-40
2023/10/10 01:56:08;;;;;;;9.27;3.13;;;15.30;99.90;;;15.17;91.17;97715.03;4985843;28;20430;-39
2023/10/10 01:58:36;;;;;;;8.95;3.80;;;15.30;99.90;;;14.92;94.42;97686.19;4991443;28;20502;-39
2023/10/10 02:01:16;;;;;;;7.85;3.20;;;15.20;99.90;;;14.97;97.32;97714.25;4987486;28;20034;-39
2023/10/10 02:03:42;;;;;;;13.18;3.95;;;15.10;99.90;;;14.87;100.00;97712.97;5000503;28;20036;-38
2023/10/10 02:06:14;;;;;;;8.82;3.60;;;15.00;99.90;;;14.77;100.00;97712.56;4991543;28;20479;-38
2023/10/10 02:08:44;;;;;;;10.20;3.38;;;14.90;99.90;;;14.68;100.00;97710.38;4984031;28;20022;-40
2023/10/10 02:11:12;;;;;;;15.38;3.65;;;14.80;99.90;;;14.60;100.00;97716.03;4986660;28;20033;-39
2023/10/10 02:13:39;;;;;;;8.85;3.63;;;14.70;99.90;;;14.54;100.00;97708.34;4986773;28;20033;-39
2023/10/10 02:16:11;;;;;;;10.27;3.60;;;14.70;99.90;;;14.48;100.00;97704.19;4985625;28;20030;-39
2023/10/10 02:18:44;;;;;;;9.73;3.40;;;14.70;99.90;;;14.40;100.00;97689.56;4999088;28;20547;-39
2023/10/10 02:21:16;;;;;;;9.70;3.75;;;14.60;99.90;;;14.38;100.00;97699.41;4994817;28;20030;-40
2023/10/10 02:23:46;;;;;;;16.52;3.65;;;14.60;99.90;;;14.34;100.00;97711.94;4991646;28;20033;-38
2023/10/10 02:26:35;;;;;;;7.25;3.35;;;14.50;99.90;;;14.28;100.00;97705.13;4994507;28;20427;-38
2023/10/10 02:29:35;;;;;;;10.52;3.50;;;14.40;99.90;;;14.22;100.00;97707.22;4985991;28;20076;-40
2023/10/10 02:32:08;;;;;;;12.38;3.65;;;14.40;99.90;;;14.10;100.00;97698.91;4988952;28;20348;-38
2023/10/10 02:34:44;;;;;;;13.80;3.80;;;14.30;99.90;;;14.04;100.00;97708.94;4987299;28;20037;-39
2023/10/10 02:39:54;;;;;;;10.98;4.18;;;14.10;99.90;;;13.87;100.00;97705.25;4986463;28;20030;-38
2023/10/10 02:42:20;;;;;;;9.77;3.80;;;14.00;99.90;;;13.69;100.00;97695.47;4989403;28;20041;-39
2023/10/10 02:45:07;;;;;;;12.32;4.35;;;14.00;99.90;;;13.70;100.00;97706.00;4989483;28;21240;-38
2023/10/10 02:47:36;;;;;;;14.93;3.88;;;13.90;99.90;;;13.62;100.00;97702.84;4992442;28;20061;-37
2023/10/10 02:50:15;;;;;;;9.48;3.60;;;13.80;99.90;;;13.54;100.00;97707.63;4986012;28;20446;-39
2023/10/10 02:52:45;;;;;;;10.57;3.85;;;13.70;99.90;;;13.44;100.00;97709.81;4994163;28;20038;-39
2023/10/10 02:55:22;;;;;;;13.85;4.13;;;13.60;99.90;;;13.37;100.00;97713.66;4990593;28;20053;-39
2023/10/10 02:57:48;;;;;;;15.30;4.68;;;13.60;99.90;;;13.27;100.00;97710.50;4989540;28;21571;-39
2023/10/10 03:00:28;;;;;;;14.75;4.07;;;13.50;99.90;;;13.21;100.00;97712.53;4989573;28;20060;-38
2023/10/10 03:03:02;;;;;;;11.02;4.28;;;13.40;99.90;;;13.15;100.00;97703.06;4986689;28;20038;-37
2023/10/10 03:05:39;;;;;;;14.07;4.13;;;13.40;99.90;;;13.03;100.00;97698.28;4988947;28;20383;-38
2023/10/10 03:08:18;;;;;;;11.60;4.30;;;13.30;99.90;;;13.05;100.00;97705.25;4985430;28;20330;-37
2023/10/10 03:10:53;;;;;;;10.05;4.35;;;13.30;99.90;;;13.00;100.00;97709.88;4987724;28;20034;-38
2023/10/10 03:13:47;;;;;;;10.95;3.70;;;13.20;99.90;;;12.90;100.00;97695.28;4989517;28;20597;-37
2023/10/10 03:18:55;;;;;;;9.73;4.05;;;13.20;99.90;;;12.88;100.00;97705.94;4991193;28;20025;-38
2023/10/10 03:24:29;;;;;;;11.63;3.88;;;13.10;99.90;;;12.78;100.00;97699.31;4993587;28;20045;-39
2023/10/10 03:27:37;;;;;;;10.52;4.50;;;13.00;99.90;;;12.75;100.00;97707.38;4990162;28;20030;-39
2023/10/10 03:29:47;;;;;;;13.27;4.72;;;13.00;99.90;;;12.62;100.00;97699.09;4989786;28;20045;-39
2023/10/10 03:32:25;;;;;;;15.05;4.60;;;13.00;99.90;;;12.67;100.00;97718.28;4989845;28;20061;-37
2023/10/10 03:34:56;;;;;;;12.20;4.45;;;12.90;99.90;;;12.62;100.00;97714.97;4994444;28;20057;-39
2023/10/10 03:40:21;;;;;;;17.95;4.93;;;12.80;99.90;;;12.56;100.00;97710.78;4990588;28;20485;-37
2023/10/10 05:24:17;;;;;;;9.77;4.13;;;12.50;99.90;;;12.23;100.00;97710.31;4986391;28;20044;-39
2023/10/10 05:26:48;;;;;;;10.55;4.32;;;12.40;99.90;;;12.20;100.00;97719.25;4989516;28;20026;-40
2023/10/10 05:29:19;;;;;;;11.57;3.83;;;12.40;99.90;;;12.15;100.00;97710.63;4984912;28;20034;-40
2023/10/10 05:31:51;;;;;;;18.42;4.50;;;12.40;99.90;;;12.14;100.00;97714.16;5000630;28;20050;-38
2023/10/10 05:34:22;;;;;;;9.63;4.15;;;12.30;99.90;;;12.11;100.00;97711.63;4995888;28;20033;-41
2023/10/10 05:36:49;;;;;;;11.00;4.03;;;12.30;99.90;;;12.13;100.00;97706.28;4996808;28;20037;-39
2023/10/10 05:39:17;;;;;;;11.50;4.55;;;12.30;99.90;;;12.05;100.00;97697.81;4986146;28;20486;-39
2023/10/10 05:41:44;;;;;;;11.20;4.15;;;12.30;99.90;;;12.07;100.00;97703.91;4985692;28;21009;-39
2023/10/10 05:44:13;;;;;;;10.30;4.32;;;12.30;99.90;;;12.06;100.00;97713.63;4991804;28;20548;-39
2023/10/10 05:46:39;;;;;;;12.43;4.85;;;12.30;99.90;;;11.98;100.00;97708.59;4993596;28;20057;-39
2023/10/10 05:49:05;;;;;;;12.38;4.47;;;12.30;99.90;;;12.03;100.00;97713.72;4988489;28;20524;-39
2023/10/10 05:51:31;;;;;;;8.80;3.92;;;12.20;99.90;;;12.03;100.00;97719.88;4992752;28;20037;-40
2023/10/10 05:53:57;;;;;;;7.70;4.22;;;12.30;99.90;;;12.06;100.00;97721.53;4988343;28;20283;-38
2023/10/10 05:56:23;;;;;;;10.18;4.35;;;12.30;99.90;;;12.11;100.00;97729.28;4991720;28;20564;-40
2023/10/10 05:58:49;;;;;;;11.18;4.15;;;12.30;99.90;;;12.14;100.00;97729.19;4987479;28;20026;-39
2023/10/10 06:01:16;;;;;;;9.68;4.70;;;12.30;99.90;;;12.12;100.00;97723.94;5003176;28;20032;-38
2023/10/10 06:03:46;;;;;;;15.02;4.90;;;12.30;99.90;;;12.11;100.00;97731.94;4993944;28;20224;-38
2023/10/10 06:06:13;;;;;;;12.30;4.90;;;12.40;99.90;;;12.15;100.00;97731.78;4987043;28;20668;-40
2023/10/10 06:08:43;;;;;;;11.40;4.70;;;12.40;99.90;;;12.14;100.00;97727.38;5007662;28;20111;-38
2023/10/10 06:11:15;;;;;;;11.27;4.32;;;12.40;99.90;;;12.17;100.00;97729.91;4995743;28;20432;-38
2023/10/10 06:13:43;;;;;;;12.85;4.38;;;12.40;99.90;;;12.17;100.00;97721.13;4995585;28;20084;-39
2023/10/10 06:16:14;;;;;;;11.75;4.05;;;12.50;99.90;;;12.34;100.00;97739.84;5011945;28;20034;-38
2023/10/10 06:18:46;;;;;;;15.63;4.90;;;12.60;99.90;;;12.40;100.00;97746.69;4997503;28;20034;-39
2023/10/10 06:21:14;;;;;;;14.00;4.47;;;12.60;99.90;;;12.47;100.00;97742.00;4997555;28;20079;-40
2023/10/10 06:23:42;;;;;;;11.20;4.35;;;12.70;99.90;;;12.43;100.00;97732.47;4984638;28;20517;-38
2023/10/10 06:26:08;;;;;;;11.45;4.70;;;12.70;99.90;;;12.60;100.00;97749.41;5004699;28;20402;-38
2023/10/10 06:28:45;;;;;;;12.73;4.47;;;12.80;99.90;;;12.64;100.00;97750.16;5001790;28;20038;-39
2023/10/10 06:31:17;;;;;;;11.73;4.50;;;12.90;99.90;;;12.67;100.00;97750.03;4998847;28;20033;-38
2023/10/10 06:33:43;;;;;;;13.57;5.00;;;12.90;99.90;;;12.69;100.00;97744.69;4992819;28;20041;-40
2023/10/10 06:38:59;;;;;;;13.48;5.25;;;13.00;99.90;;;12.72;100.00;97736.63;4994051;28;20065;-38
2023/10/10 06:41:27;;;;;;;11.23;4.80;;;13.00;99.90;;;12.86;100.00;97746.66;4994860;28;20032;-41
2023/10/10 06:43:54;;;;;;;13.13;5.13;;;13.10;99.90;;;12.90;100.00;97754.41;4998340;28;20506;-39
2023/10/10 06:46:19;;;;;;;11.20;4.85;;;13.10;99.90;;;12.93;100.00;97750.78;5002161;28;20313;-38
2023/10/10 06:48:47;;;;;;;14.60;5.18;;;13.20;99.90;;;13.00;100.00;97749.59;4993794;28;20040;-41
2023/10/10 06:51:16;;;;;;;14.00;4.85;;;13.20;99.90;;;13.08;100.00;97755.44;4993074;28;20497;-38
2023/10/10 06:53:45;;;;;;;14.52;5.15;;;13.30;99.90;;;13.14;100.00;97747.22;5000276;28;20037;-38
2023/10/10 06:56:17;;;;;;;15.35;5.75;;;13.30;99.90;;;13.15;100.00;97738.38;4997490;28;20036;-41
2023/10/10 06:58:47;;;;;;;16.60;4.80;;;13.40;99.90;;;13.17;100.00;97731.22;4996174;28;20502;-38
2023/10/10 07:01:19;;;;;;;13.95;5.38;;;13.50;99.90;;;13.34;100.00;97749.06;4992596;28;20371;-40
2023/10/10 07:03:54;;;;;;;13.82;5.07;;;13.60;99.90;;;13.40;100.00;97745.28;5001047;28;20055;-38
2023/10/10 07:06:21;;;;;;;10.25;4.80;;;13.60;99.90;;;13.46;100.00;97747.69;5003901;28;20038;-39
2023/10/10 07:09:03;;;;;;;11.98;4.93;;;13.70;99.90;;;13.52;100.00;97755.38;5002368;28;20030;-38
2023/10/10 07:11:29;;;;;;;14.90;4.85;;;13.70;99.90;;;13.61;100.00;97748.81;4992761;28;20038;-42
2023/10/10 07:13:58;;;;;;;10.23;4.50;;;13.80;99.90;;;13.66;100.00;97730.06;5003543;28;20038;-38
2023/10/10 07:16:24;;;;;;;17.13;5.45;;;13.90;99.90;;;13.80;100.00;97740.03;5001144;28;20029;-38
2023/10/10 07:18:56;;;;;;;17.75;5.20;;;14.00;99.90;;;13.91;100.00;97746.59;5001627;28;20465;-40
2023/10/10 07:21:36;;;;;;;13.05;4.72;;;14.10;99.90;;;14.05;100.00;97742.44;5000125;28;20033;-38
2023/10/10 07:24:05;;;;;;;13.68;5.18;;;14.30;99.90;;;14.10;100.00;97727.19;5002810;28;20048;-38
2023/10/10 07:26:40;;;;;;;17.17;5.65;;;14.50;99.90;;;14.35;100.00;97744.63;5002545;28;20043;-38
2023/10/10 07:29:26;;;;;;;11.23;4.20;;;14.60;99.90;;;14.51;100.00;97754.44;4985862;28;21892;-39
2023/10/10 07:32:04;;;;;;;11.32;5.13;;;14.80;99.90;;;14.66;100.00;97755.56;4991697;28;20370;-38
2023/10/10 07:34:41;;;;;;;14.23;5.13;;;14.90;99.90;;;14.79;100.00;97760.28;5000286;28;20032;-38
2023/10/10 07:37:09;;;;;;;12.38;4.72;;;15.00;99.90;;;14.90;100.00;97755.31;4993348;28;20025;-40
2023/10/10 07:39:55;;;;;;;12.18;5.05;;;15.10;99.90;;;14.92;100.00;97758.75;5004524;28;20045;-38
2023/10/10 07:42:35;;;;;;;13.13;5.40;;;15.20;99.90;;;15.07;100.00;97765.09;5002999;28;20022;-38
2023/10/10 07:45:13;;;;;;;12.15;5.30;;;15.30;99.90;;;15.16;100.00;97769.09;5004072;28;20088;-38
2023/10/10 07:50:35;;;;;;;13.60;5.05;;;15.40;99.90;;;15.32;100.00;97763.88;5006138;28;20045;-39
2023/10/10 07:53:12;;;;;;;15.88;5.72;;;15.50;99.90;;;15.28;100.00;97741.91;5005238;28;20539;-40
2023/10/10 07:58:23;;;;;;;13.02;5.72;;;15.60;99.90;;;15.55;100.00;97770.69;5001618;28;20064;-39
2023/10/10 08:01:03;;;;;;;16.02;6.32;;;15.70;99.90;;;15.50;100.00;97760.28;4995593;28;20545;-41
2023/10/10 08:03:31;;;;;;;18.58;5.55;;;15.80;99.90;;;15.66;100.00;97777.16;4996954;28;20551;-40
2023/10/10 08:05:57;;;;;;;17.50;6.07;;;15.80;99.90;;;15.70;100.00;97777.88;4991714;28;20038;-39
2023/10/10 08:08:25;;;;;;;13.48;5.38;;;15.90;99.90;;;15.72;100.00;97772.47;5002622;28;20113;-38
2023/10/10 08:10:51;;;;;;;12.15;4.93;;;15.90;99.90;;;15.84;100.00;97778.06;4990618;28;20685;-39
2023/10/10 08:13:20;;;;;;;13.63;5.50;;;16.00;99.90;;;15.94;100.00;97777.59;4992220;28;20041;-40
2023/10/10 08:16:01;;;;;;;14.80;5.38;;;16.10;99.90;;;16.05;100.00;97780.53;4996860;28;20018;-39
2023/10/10 08:21:12;;;;;;;14.95;6.45;;;16.30;99.90;;;16.29;100.00;97777.50;5001796;28;20029;-40
2023/10/10 08:23:42;;;;;;;18.00;6.13;;;16.40;99.90;;;16.44;100.00;97781.09;4989572;28;20044;-39
2023/10/10 08:26:17;;;;;;;16.70;6.72;;;16.60;99.90;;;16.59;100.00;97786.47;4992937;28;20069;-39
2023/10/10 08:28:47;;;;;;;13.43;5.68;;;16.70;99.90;;;16.73;100.00;97788.38;4991192;28;20675;-39
2023/10/10 08:31:13;;;;;;;16.58;5.10;;;16.90;99.90;;;16.83;100.00;97793.16;4988163;28;20037;-37
2023/10/10 08:33:46;;;;;;;13.82;5.13;;;16.90;99.90;;;16.78;100.00;97773.00;4992471;28;20052;-37
2023/10/10 08:36:23;;;;;;;12.50;5.68;;;17.00;99.90;;;17.03;99.04;97794.75;4997188;28;20061;-37
2023/10/10 08:38:54;;;;;;;14.23;4.85;;;17.10;99.90;;;17.14;98.21;97789.69;4997817;28;20033;-37
2023/10/10 08:41:29;;;;;;;10.13;4.57;;;17.20;99.90;;;17.22;97.48;97794.56;4998890;28;20037;-37
2023/10/10 08:43:58;;;;;;;16.90;5.22;;;17.30;99.90;;;17.31;96.37;97786.03;4996392;28;20029;-35
2023/10/10 08:46:31;;;;;;;13.18;5.38;;;17.40;99.90;;;17.35;95.69;97793.78;4988310;28;20120;-36
2023/10/10 08:49:04;;;;;;;11.48;5.32;;;17.50;99.90;;;17.44;95.36;97788.81;5001437;28;20069;-38
2023/10/10 08:51:34;;;;;;;21.25;6.28;;;17.50;99.90;;;17.47;93.31;97784.19;4990291;28;20042;-38
2023/10/10 08:54:10;;;;;;;14.35;5.13;;;17.60;99.90;;;17.51;93.21;97784.84;4992762;28;20041;-37
2023/10/10 08:56:42;;;;;;;17.60;5.65;;;17.60;99.90;;;17.58;92.32;97780.88;4990341;28;20040;-38
2023/10/10 08:59:12;;;;;;;11.73;5.17;;;17.70;99.90;;;17.67;92.76;97782.13;4997690;28;20045;-37
2023/10/10 09:01:38;;;;;;;11.13;4.57;;;17.70;99.90;;;17.77;91.74;97785.13;4985993;28;20364;-38
2023/10/10 09:04:05;;;;;;;12.43;5.10;;;17.80;99.90;;;17.87;89.77;97789.84;4986558;28;21380;-37
2023/10/10 09:06:45;;;;;;;12.27;5.75;;;17.90;99.90;;;17.98;87.52;97778.53;4988608;28;20102;-38
2023/10/10 09:11:56;;;;;;;9.65;4.40;;;18.20;99.90;;;18.10;83.63;97760.88;4995724;28;20133;-37
2023/10/10 09:14:43;;;;;;;10.57;4.05;;;18.30;99.90;;;18.27;81.54;97789.22;4989865;28;20044;-38
2023/10/10 09:17:11;;;;;;;11.35;4.55;;;18.30;99.90;;;18.34;79.61;97779.00;4991670;28;20975;-38
2023/10/10 09:19:48;;;;;;;12.57;4.90;;;18.40;99.90;;;18.38;77.30;97776.06;5011268;28;20441;-35
2023/10/10 09:22:42;;;;;;;15.70;5.43;;;18.50;99.90;;;18.53;78.91;97771.56;4997103;28;20065;-35
2023/10/10 09:25:48;;;;;;;12.30;4.82;;;18.60;99.90;;;18.68;76.92;97775.94;4990488;28;20034;-35
2023/10/10 09:28:30;;;;;;;15.98;5.05;;;18.70;99.90;;;18.84;75.42;97785.66;5001859;28;20030;-38
2023/10/10 09:31:03;;;;;;;11.82;4.50;;;18.90;99.90;;;18.96;76.10;97784.88;4987294;28;20030;-36
2023/10/10 09:33:33;;;;;;;;;;;19.00;99.90;;;19.14;70.00;97785.47;4986362;28;20038;-36
2023/10/10 09:36:15;;;;;;;14.98;4.75;;;19.20;99.90;;;19.32;65.74;97779.88;4995579;28;20938;-35
2023/10/10 09:38:46;;;;;;;15.13;5.30;;;19.40;99.90;;;19.51;64.12;97780.38;4985709;28;20690;-37
2023/10/10 09:49:54;;;;;;;18.67;5.47;;;19.80;99.90;;;19.80;68.02;97777.56;4991567;28;20712;-37
2023/10/10 09:57:58;;;;;;;14.73;5.47;;;19.90;99.90;;;19.93;66.84;97789.13;4990142;28;20040;-37
2023/10/10 10:06:34;;;;;;;17.30;5.65;;;20.10;99.90;;;20.12;64.03;97795.91;4993742;28;20038;-37
2023/10/10 10:09:21;;;;;;;12.27;4.50;;;20.20;99.90;;;20.16;62.31;97792.06;4989127;28;20304;-36
2023/10/10 10:12:33;;;;;;;9.35;4.53;;;20.20;99.90;;;20.19;62.65;97792.69;5004208;28;20041;-37
2023/10/10 10:15:28;;;;;;;11.82;4.50;;;20.20;99.80;;;20.20;61.92;97786.34;5005343;28;20037;-37
2023/10/10 10:21:18;;;;;;;11.95;5.00;;;20.30;99.60;;;20.20;60.04;97791.72;4964973;28;20045;-38
2023/10/10 10:23:47;;;;;;;10.70;4.78;;;20.30;99.10;;;20.20;60.13;97797.06;4988872;28;20536;-38
2023/10/10 10:26:41;;;;;;;9.85;4.68;;;20.30;99.00;;;20.25;60.08;97787.88;4995046;28;20041;-37
2023/10/10 10:29:15;;;;;;;10.15;4.10;;;20.30;99.10;;;20.20;59.08;97778.31;4989584;28;20034;-37
2023/10/10 10:31:49;;;;;;;14.30;5.38;;;20.30;99.10;;;20.31;59.65;97796.31;4989113;28;20041;-37
2023/10/10 10:34:31;;;;;;;17.02;5.57;;;20.40;98.80;;;20.36;59.53;97790.66;4987300;28;20033;-37
2023/10/10 10:37:13;;;;;;;12.77;5.57;;;20.40;98.70;;;20.44;60.18;97800.81;4990842;28;20120;-37
2023/10/10 10:40:22;;;;;;;9.60;4.38;;;20.50;99.00;;;20.50;59.46;97792.34;4992473;28;20030;-37
2023/10/10 10:42:27;;;;;;;10.50;4.60;;;20.50;98.90;;;20.58;59.56;97795.31;4994516;28;20041;-37
2023/10/10 10:44:55;;;;;;;13.15;4.90;;;20.60;98.80;;;20.61;60.18;97781.75;4993149;28;20056;-38
2023/10/10 10:47:39;;;;;;;9.82;4.53;;;20.60;99.00;;;20.66;62.05;97781.44;4988613;28;20061;-37
2023/10/10 10:50:18;;;;;;;15.15;4.60;;;20.70;99.20;;;20.66;60.86;97790.31;4989852;28;20062;-37
2023/10/10 10:53:05;;;;;;;15.25;4.60;;;20.70;99.10;;;20.71;59.01;97782.81;4988308;28;20489;-37
2023/10/10 10:55:31;;;;;;;11.48;4.30;;;20.80;98.70;;;20.79;57.62;97783.09;4993053;28;20517;-37
2023/10/10 10:58:20;;;;;;;11.30;4.50;;;20.90;98.10;;;20.91;56.32;97793.91;4990608;28;20044;-37
2023/10/10 11:01:00;;;;;;;12.82;4.22;;;21.00;97.70;;;21.01;55.31;97789.56;4995368;28;20391;-39
2023/10/10 11:03:34;;;;;;;12.18;5.32;;;21.10;97.40;;;21.08;53.09;97785.47;4991283;28;21317;-37
2023/10/10 11:06:09;;;;;;;10.13;4.78;;;21.20;96.50;;;21.19;52.75;97776.63;4991625;28;20033;-37
2023/10/10 11:09:08;;;;;;;18.15;5.97;;;21.20;96.50;;;21.29;50.18;97782.19;5001192;28;20100;-37
2023/10/10 11:14:00;;;;;;;10.15;4.55;;;21.50;94.30;;;21.49;49.61;97778.88;4990047;28;20124;-37
2023/10/10 11:16:45;;;;;;;12.40;5.35;;;21.50;94.30;;;21.51;48.33;97760.81;4992682;28;20140;-37
2023/10/10 11:21:49;;;;;;;13.05;5.38;;;21.70;93.80;;;21.72;49.07;97770.91;5005047;28;20030;-37
2023/10/10 11:24:23;;;;;;;13.40;5.13;;;21.80;94.20;;;21.82;49.64;97763.88;4990383;28;20033;-37
2023/10/10 11:29:28;;;;;;;16.00;4.95;;;22.00;94.40;;;21.87;48.33;97745.56;4993412;28;20058;-36
2023/10/10 11:32:08;;;;;;;12.02;5.25;;;22.00;93.70;;;21.99;46.99;97759.03;4989976;28;20049;-38
2023/10/10 11:34:46;;;;;;;9.25;4.55;;;22.00;93.20;;;22.05;47.58;97747.78;4993137;28;20073;-37
2023/10/10 11:37:13;;;;;;;13.82;4.75;;;22.10;93.30;;;22.11;47.30;97744.66;4993444;28;20475;-37
2023/10/10 11:39:47;;;;;;;12.60;5.82;;;22.20;93.10;;;22.18;47.81;97745.00;4992573;28;20040;-37
2023/10/10 11:42:24;;;;;;;12.50;5.53;;;22.30;93.20;;;22.21;48.26;97736.69;4993641;28;20084;-37
2023/10/10 11:45:07;;;;;;;13.65;4.72;;;22.30;93.70;;;22.29;49.06;97731.63;4992653;28;20048;-37
2023/10/10 11:47:44;;;;;;;20.65;5.57;;;22.40;93.70;;;22.29;48.54;97727.09;4991679;28;20038;-37
2023/10/10 11:50:12;;;;;;;10.60;4.55;;;22.40;93.80;;;22.32;48.49;97720.59;4991984;28;20461;-37
2023/10/10 11:52:58;;;;;;;10.38;4.18;;;22.40;93.50;;;22.36;48.59;97714.03;4999741;28;20565;-37
2023/10/10 11:55:25;;;;;;;12.93;4.22;;;22.50;93.60;;;22.41;48.07;97721.72;4994387;28;20038;-38
2023/10/10 11:57:57;;;;;;;11.57;4.18;;;22.50;93.30;;;22.46;47.13;97727.56;4993945;28;20346;-37
2023/10/10 12:00:42;;;;;;;13.40;5.78;;;22.50;92.70;;;22.40;45.94;97717.31;4991640;28;20516;-37
2023/10/10 12:03:19;;;;;;;15.02;5.60;;;22.50;92.20;;;22.44;46.07;97713.41;4998802;28;20083;-37
2023/10/10 12:05:48;;;;;;;10.93;5.20;;;22.50;91.80;;;22.43;47.42;97717.06;4991686;28;20053;-37
2023/10/10 12:08:22;;;;;;;12.05;4.85;;;22.50;92.50;;;22.46;46.95;97712.28;4991600;28;20548;-37
2023/10/10 12:10:52;;;;;;;14.00;4.82;;;22.50;92.80;;;22.48;46.16;97714.88;4992427;28;20148;-39
2023/10/10 12:16:10;;;;;;;10.95;4.78;;;22.60;92.30;;;22.54;46.51;97700.94;4991274;28;20056;-37
2023/10/10 12:18:43;;;;;;;16.15;5.10;;;22.60;92.10;;;22.49;46.21;97689.72;4993832;28;20032;-38
2023/10/10 12:21:14;;;;;;;11.88;5.10;;;22.60;91.90;;;22.60;45.72;97702.28;4992223;28;20046;-38
2023/10/10 12:23:40;;;;;;;14.68;4.95;;;22.70;91.60;;;22.62;46.29;97701.16;4995711;28;20042;-37
2023/10/10 12:26:08;;;;;;;18.27;5.63;;;22.70;91.60;;;22.64;46.86;97699.19;4995456;28;20446;-37
2023/10/10 12:28:34;;;;;;;23.00;6.18;;;22.80;92.00;;;22.61;45.36;97699.47;4994165;28;20026;-38
2023/10/10 12:31:03;;;;;;;13.93;5.25;;;22.80;91.60;;;22.70;46.26;97697.84;4990020;28;20112;-37
2023/10/10 12:33:29;;;;;;;23.52;5.22;;;22.80;91.70;;;22.73;46.63;97694.91;4990337;28;20747;-37
2023/10/10 12:35:56;;;;;;;10.38;4.30;;;22.80;92.00;;;22.77;46.95;97692.81;4991703;28;20033;-37
2023/10/10 12:38:22;;;;;;;12.13;4.38;;;22.80;92.10;;;22.80;46.74;97687.19;4990504;28;20026;-38
2023/10/10 12:40:49;;;;;;;13.32;4.47;;;22.90;92.40;;;22.81;45.99;97683.53;4997195;28;20508;-38
2023/10/10 12:43:16;;;;;;;17.33;5.20;;;22.90;91.80;;;22.83;46.27;97686.97;4995302;28;20041;-37
2023/10/10 12:45:41;;;;;;;12.10;4.97;;;22.90;91.40;;;22.86;45.60;97681.31;4993696;28;20034;-38
2023/10/10 12:48:13;;;;;;;13.27;4.75;;;22.90;91.30;;;22.88;46.09;97679.38;4990850;28;20040;-37
2023/10/10 12:50:44;;;;;;;13.40;5.20;;;22.90;91.40;;;22.88;46.29;97684.75;4992119;28;20035;-38
2023/10/10 12:53:15;;;;;;;15.48;5.53;;;22.90;91.90;;;22.85;46.24;97682.31;4992569;28;20029;-38
2023/10/10 12:55:52;;;;;;;13.13;4.72;;;22.90;91.50;;;22.80;44.88;97679.13;4997151;28;20074;-39
2023/10/10 12:58:22;;;;;;;12.07;4.75;;;22.90;90.70;;;22.81;45.08;97680.84;4994132;28;20026;-39
2023/10/10 13:00:52;;;;;;;11.43;4.82;;;22.90;91.00;;;22.79;44.93;97680.97;4989445;28;20030;-38
2023/10/10 13:03:29;;;;;;;19.52;6.18;;;22.80;90.70;;;22.67;45.00;97674.75;4992558;28;20140;-37
2023/10/10 13:05:59;;;;;;;11.88;4.80;;;22.80;90.50;;;22.67;44.78;97668.53;4989346;28;20120;-39
2023/10/10 13:08:38;;;;;;;18.48;5.25;;;22.80;90.60;;;22.63;44.59;97676.00;4993522;28;20167;-38
2023/10/10 13:11:19;;;;;;;13.32;5.28;;;22.80;90.50;;;22.51;45.26;97660.88;4990292;28;20508;-38
2023/10/10 13:13:51;;;;;;;13.23;5.10;;;22.70;90.50;;;22.63;45.30;97677.81;4993085;28;20120;-39
2023/10/10 13:19:09;;;;;;;12.25;4.05;;;22.70;90.70;;;22.68;45.58;97667.53;5005243;28;20044;-37
2023/10/10 13:21:38;;;;;;;13.57;4.93;;;22.70;90.80;;;22.73;45.38;97672.56;4993163;28;20026;-37
2023/10/10 13:24:09;;;;;;;16.95;5.13;;;22.80;90.90;;;22.73;44.19;97676.09;4991111;28;20718;-37
2023/10/10 13:26:36;;;;;;;9.32;4.57;;;22.80;89.90;;;22.71;43.93;97680.75;4996736;28;20057;-39
2023/10/10 13:29:02;;;;;;;12.23;4.40;;;22.80;89.60;;;22.74;44.24;97668.88;5003804;28;20469;-38
2023/10/10 13:31:29;;;;;;;18.40;5.78;;;22.80;89.80;;;22.68;44.82;97671.09;5003984;28;20525;-38